Portada
METAR-TAF:

METAR-TAF

Aeropuertos :

Laghouat, Argelia

latitud: 33-46N, longitud: 002-56E, altitud: 765 m

Observación

El informe se hizo hace 2 horas y 26 minutos, a las 12:00 UTC
Viento 20 kt del sureste
Temperatura 37°C
Humedad 21%
Presión 1016 hPa
Visibilidad: 4000 m
Nubes dispersas a una altura de 3300 ft
Nubes dispersas a una altura de 10000 ft
Ventisca baja de arena,

METAR: DAUL 201200Z 13020KT 4000 DRSA SCT033 SCT100 37/11 Q1016

Hora: 15:26 (14:26 UTC)

Pronóstico

El informe se hizo hace 3 horas y 26 minutos, a las 11:00 UTC
Pronóstico válido del 20 a las 12 UTC al 20 a las 21 UTC
Viento 14 kt del este-sureste
Visibilidad: 4000 m
arena
Evolucionando progresivamente
del 20 a las 15 UTC al 20 a las 18 UTC
Visibilidad: 6000 m

TAF: DAUL 201100Z 2012/2021 12014KT 4000 SA NSC BECMG 2015/2018 6000 NSW

Observaciones y pronósticos meteorológicos de más de 4000 aeropuertos (mensajes METAR y TAF).

Los puntos amarillos y rojos representan las estaciones disponibles.

Ponga el ratón en el punto deseado para ver el nombre de la estación.

Haga clic para ver las observaciones y los pronósticos meteorológicos.

Para cambiar el mapa : haga clic en los botones verdes con una cruz de color negro para hacer un zoom, en el botón verde con un guión para alejar o en las flechas verdes para mapas adyacentes.


METAR-TAF: